Time;durP1;ratioP1;P1;durP2;ratioP2;P2;SDS_P1;SDS_P2;PMS_P1;PMS_P2;Temp;Humidity;BMP_temperature;BMP_pressure;BME280_temperature;BME280_humidity;BME280_pressure;Samples;Min_cycle;Max_cycle;Signal;HPM_P1;HPM_P2
2022/04/19 00:02:45;;;;;;;;;;;;;;;9.3;48.61914;101649;;;;-81
2022/04/19 00:07:45;;;;;;;;;;;;;;;9.24;48.70117;101641.7;;;;-80
2022/04/19 00:12:47;;;;;;;;;;;;;;;9.15;48.72461;101631.9;;;;-81
2022/04/19 00:16:00;;;;;;;14.9;8.2;;;;;;;;;;;;;-80
2022/04/19 00:17:45;;;;;;;;;;;;;;;9.07;48.84961;101634.6;;;;-81
2022/04/19 00:22:46;;;;;;;;;;;;;;;9;49.06445;101633.6;;;;-82
2022/04/19 00:27:45;;;;;;;;;;;;;;;8.94;49.14648;101631.5;;;;-81
2022/04/19 00:32:46;;;;;;;;;;;;;;;8.9;49.1748;101627.5;;;;-81
2022/04/19 00:37:45;;;;;;;;;;;;;;;8.84;49.06836;101621.5;;;;-81
2022/04/19 00:42:46;;;;;;;;;;;;;;;8.77;49.13867;101619.9;;;;-82
2022/04/19 00:45:58;;;;;;;15.1;8.2;;;;;;;;;;;;;-79
2022/04/19 00:47:45;;;;;;;;;;;;;;;8.72;49.2207;101627;;;;-82
2022/04/19 00:52:45;;;;;;;;;;;;;;;8.68;49.31641;101622.9;;;;-81
2022/04/19 00:57:46;;;;;;;;;;;;;;;8.61;49.37598;101619;;;;-81
2022/04/19 01:02:45;;;;;;;;;;;;;;;8.56;49.63672;101619.9;;;;-81
2022/04/19 01:07:46;;;;;;;;;;;;;;;8.5;49.66406;101620.4;;;;-82
2022/04/19 01:16:00;;;;;;;15.5;8.4;;;;;;;;;;;;;-81
2022/04/19 01:17:47;;;;;;;;;;;;;;;8.4;49.70801;101621;;;;-80
2022/04/19 01:22:46;;;;;;;;;;;;;;;8.35;49.74609;101619.1;;;;-82
2022/04/19 01:27:45;;;;;;;;;;;;;;;8.29;49.7832;101614.1;;;;-78
2022/04/19 01:32:45;;;;;;;;;;;;;;;8.25;49.7793;101611.6;;;;-79
2022/04/19 01:37:46;;;;;;;;;;;;;;;8.2;49.84082;101607.6;;;;-80
2022/04/19 01:42:45;;;;;;;;;;;;;;;8.13;49.78711;101605.1;;;;-81
2022/04/19 01:46:00;;;;;;;15.1;8;;;;;;;;;;;;;-81
2022/04/19 01:47:45;;;;;;;;;;;;;;;8.09;49.87109;101603.8;;;;-81
2022/04/19 01:52:46;;;;;;;;;;;;;;;8.07;49.87988;101602.7;;;;-80
2022/04/19 01:57:45;;;;;;;;;;;;;;;8.01;49.84082;101599.9;;;;-80
2022/04/19 02:02:46;;;;;;;;;;;;;;;7.96;49.97949;101597.9;;;;-80
2022/04/19 02:07:45;;;;;;;;;;;;;;;7.94;49.99902;101600.9;;;;-80
2022/04/19 02:12:45;;;;;;;;;;;;;;;7.91;50.07227;101598.1;;;;-82
2022/04/19 02:16:00;;;;;;;15.7;8.6;;;;;;;;;;;;;-81
2022/04/19 02:17:50;;;;;;;;;;;;;;;7.85;50.09863;101600.1;;;;-82
2022/04/19 02:22:45;;;;;;;;;;;;;;;7.78;50.14648;101599;;;;-80
2022/04/19 02:27:47;;;;;;;;;;;;;;;7.75;50.19824;101598.1;;;;-81
2022/04/19 02:32:45;;;;;;;;;;;;;;;7.71;50.2832;101603.7;;;;-79
2022/04/19 02:37:49;;;;;;;;;;;;;;;7.67;50.31055;101602.3;;;;-79
2022/04/19 02:42:45;;;;;;;;;;;;;;;7.62;50.29297;101596;;;;-79
2022/04/19 02:46:00;;;;;;;15.1;8.1;;;;;;;;;;;;;-80
2022/04/19 02:47:45;;;;;;;;;;;;;;;7.58;50.28906;101596.2;;;;-81
2022/04/19 02:52:45;;;;;;;;;;;;;;;7.53;50.16211;101596.5;;;;-80
2022/04/19 02:57:45;;;;;;;;;;;;;;;7.48;50.26758;101591.3;;;;-82
2022/04/19 03:02:46;;;;;;;;;;;;;;;7.46;50.19922;101590.3;;;;-81
2022/04/19 03:07:45;;;;;;;;;;;;;;;7.41;50.32617;101589.2;;;;-83
2022/04/19 03:12:45;;;;;;;;;;;;;;;7.38;50.26563;101588.3;;;;-81
2022/04/19 03:16:00;;;;;;;14.7;7.3;;;;;;;;;;;;;-79
2022/04/19 03:17:45;;;;;;;;;;;;;;;7.4;49.91406;101583.2;;;;-81
2022/04/19 03:27:45;;;;;;;;;;;;;;;7.38;49.65723;101587.7;;;;-81
2022/04/19 03:32:47;;;;;;;;;;;;;;;7.37;49.72168;101591.7;;;;-81
2022/04/19 03:37:45;;;;;;;;;;;;;;;7.32;49.72754;101590.9;;;;-82
2022/04/19 03:42:45;;;;;;;;;;;;;;;7.26;49.78711;101584.4;;;;-79
2022/04/19 03:46:01;;;;;;;11.6;6.2;;;;;;;;;;;;;-81
2022/04/19 03:47:45;;;;;;;;;;;;;;;7.24;49.91797;101585.7;;;;-79
2022/04/19 03:52:45;;;;;;;;;;;;;;;7.16;49.93164;101585.2;;;;-79
2022/04/19 03:57:45;;;;;;;;;;;;;;;7.11;49.95801;101583;;;;-81
2022/04/19 04:02:45;;;;;;;;;;;;;;;7.04;50.08301;101578.6;;;;-80
2022/04/19 04:07:46;;;;;;;;;;;;;;;7;50.04492;101584.1;;;;-81
2022/04/19 04:12:45;;;;;;;;;;;;;;;6.95;50.11621;101583.9;;;;-80
2022/04/19 04:16:01;;;;;;;10;5.4;;;;;;;;;;;;;-80
2022/04/19 04:17:45;;;;;;;;;;;;;;;6.89;50.14355;101586.3;;;;-80
2022/04/19 04:22:45;;;;;;;;;;;;;;;6.83;50.125;101584.9;;;;-80
2022/04/19 04:27:45;;;;;;;;;;;;;;;6.79;50.20898;101590;;;;-78
2022/04/19 04:32:45;;;;;;;;;;;;;;;6.78;50.05371;101592.2;;;;-82
2022/04/19 04:37:45;;;;;;;;;;;;;;;6.79;49.92188;101594.8;;;;-80
2022/04/19 04:42:45;;;;;;;;;;;;;;;6.79;49.95508;101596;;;;-81
2022/04/19 04:52:45;;;;;;;;;;;;;;;6.83;50.02539;101597.8;;;;-79
2022/04/19 04:57:45;;;;;;;;;;;;;;;6.9;49.85547;101599.1;;;;-81
2022/04/19 05:02:45;;;;;;;;;;;;;;;6.93;49.72656;101598.2;;;;-82
2022/04/19 05:07:45;;;;;;;;;;;;;;;6.98;49.52148;101607.7;;;;-80
2022/04/19 05:12:45;;;;;;;;;;;;;;;7.02;49.48242;101610.6;;;;-80
2022/04/19 05:16:02;;;;;;;9.2;4.6;;;;;;;;;;;;;-81
2022/04/19 05:17:45;;;;;;;;;;;;;;;7.05;49.56445;101616;;;;-81
2022/04/19 05:22:45;;;;;;;;;;;;;;;7.11;49.61426;101617.9;;;;-80
2022/04/19 05:27:48;;;;;;;;;;;;;;;7.18;49.7998;101622.7;;;;-80
2022/04/19 05:32:46;;;;;;;;;;;;;;;7.26;49.4541;101622;;;;-81
2022/04/19 05:37:45;;;;;;;;;;;;;;;7.36;49.66602;101624.6;;;;-81
2022/04/19 05:42:45;;;;;;;;;;;;;;;7.48;49.5127;101624.2;;;;-81
2022/04/19 05:46:02;;;;;;;9.9;4.8;;;;;;;;;;;;;-80
2022/04/19 05:47:45;;;;;;;;;;;;;;;7.6;49.77051;101624.1;;;;-80
2022/04/19 05:52:45;;;;;;;;;;;;;;;7.85;49.84375;101622.6;;;;-80
2022/04/19 05:57:45;;;;;;;;;;;;;;;8.3;49.75098;101622;;;;-80
2022/04/19 06:07:52;;;;;;;;;;;;;;;9.34;47.78711;101627.9;;;;-80
2022/04/19 06:12:45;;;;;;;;;;;;;;;9.77;47.12207;101628.9;;;;-80
2022/04/19 06:16:02;;;;;;;9.6;4.9;;;;;;;;;;;;;-80
2022/04/19 06:17:45;;;;;;;;;;;;;;;10.1;46.57813;101632.3;;;;-78
2022/04/19 06:22:45;;;;;;;;;;;;;;;10.47;46.08105;101637.2;;;;-79
2022/04/19 06:27:45;;;;;;;;;;;;;;;10.76;45.78613;101636.2;;;;-80
2022/04/19 06:32:45;;;;;;;;;;;;;;;11.03;45.50195;101640.1;;;;-80
2022/04/19 06:37:47;;;;;;;;;;;;;;;11.32;45.16211;101631.4;;;;-79
2022/04/19 06:42:45;;;;;;;;;;;;;;;11.66;44.82813;101634.2;;;;-81
2022/04/19 06:46:03;;;;;;;9.5;5.2;;;;;;;;;;;;;-81
2022/04/19 06:47:45;;;;;;;;;;;;;;;11.97;44.59082;101639.8;;;;-81
2022/04/19 06:52:45;;;;;;;;;;;;;;;12.22;44.42578;101641.7;;;;-80
2022/04/19 06:57:45;;;;;;;;;;;;;;;12.44;44.2334;101647.4;;;;-81
2022/04/19 07:02:45;;;;;;;;;;;;;;;12.62;44.23047;101648.7;;;;-81
2022/04/19 07:07:46;;;;;;;;;;;;;;;12.86;44.04102;101644.7;;;;-79
2022/04/19 07:12:45;;;;;;;;;;;;;;;13.18;43.91406;101650.5;;;;-80
2022/04/19 07:16:04;;;;;;;8.8;4.8;;;;;;;;;;;;;-80
2022/04/19 07:17:45;;;;;;;;;;;;;;;13.52;43.75781;101654;;;;-80
2022/04/19 07:27:45;;;;;;;;;;;;;;;14.31;42.96777;101652.6;;;;-81
2022/04/19 07:32:45;;;;;;;;;;;;;;;14.71;42.62207;101648.9;;;;-82
2022/04/19 07:37:45;;;;;;;;;;;;;;;15.08;42.28613;101651.6;;;;-80
2022/04/19 07:42:45;;;;;;;;;;;;;;;15.47;42.07422;101650;;;;-80
2022/04/19 07:46:06;;;;;;;8.9;4.8;;;;;;;;;;;;;-82
2022/04/19 07:47:47;;;;;;;;;;;;;;;15.86;41.7832;101651.5;;;;-81
2022/04/19 07:52:45;;;;;;;;;;;;;;;16.24;41.45605;101648;;;;-80
2022/04/19 07:57:45;;;;;;;;;;;;;;;16.6;41.12793;101647.5;;;;-78
2022/04/19 08:02:45;;;;;;;;;;;;;;;16.98;40.94727;101647.5;;;;-81
2022/04/19 08:07:48;;;;;;;;;;;;;;;17.45;40.61523;101652.9;;;;-82
2022/04/19 08:12:45;;;;;;;;;;;;;;;17.94;40.1709;101654.5;;;;-80
2022/04/19 08:16:10;;;;;;;6.6;4.2;;;;;;;;;;;;;-80
2022/04/19 08:17:45;;;;;;;;;;;;;;;18.35;39.19336;101661.2;;;;-81
2022/04/19 08:22:47;;;;;;;;;;;;;;;18.71;38.83594;101659.2;;;;-78
2022/04/19 08:27:46;;;;;;;;;;;;;;;19.1;38.25391;101656.1;;;;-81
2022/04/19 08:32:45;;;;;;;;;;;;;;;19.45;37.67871;101655.5;;;;-82
2022/04/19 08:37:45;;;;;;;;;;;;;;;19.75;37.32617;101654.7;;;;-82
2022/04/19 08:42:45;;;;;;;;;;;;;;;20.07;36.97559;101661.9;;;;-81
2022/04/19 08:46:11;;;;;;;7.9;4.5;;;;;;;;;;;;;-80
2022/04/19 08:47:46;;;;;;;;;;;;;;;20.43;36.6377;101667;;;;-81
2022/04/19 08:52:45;;;;;;;;;;;;;;;20.66;36.41699;101661;;;;-82
2022/04/19 08:57:45;;;;;;;;;;;;;;;20.96;36.0957;101659;;;;-81
2022/04/19 09:02:46;;;;;;;;;;;;;;;21.32;36.01074;101657.2;;;;-82
2022/04/19 09:07:47;;;;;;;;;;;;;;;21.68;35.26953;101656.1;;;;-82
2022/04/19 09:12:55;;;;;;;;;;;;;;;22;35.0293;101654.8;;;;-82
2022/04/19 09:16:13;;;;;;;9.4;4.8;;;;;;;;;;;;;-80
2022/04/19 09:17:52;;;;;;;;;;;;;;;22.31;34.89355;101654.6;;;;-82
2022/04/19 09:22:45;;;;;;;;;;;;;;;22.68;34.28809;101658;;;;-81
2022/04/19 09:27:49;;;;;;;;;;;;;;;22.91;33.70605;101650.8;;;;-83
2022/04/19 09:32:46;;;;;;;;;;;;;;;23.22;34.01758;101651.8;;;;-83
2022/04/19 09:37:50;;;;;;;;;;;;;;;23.51;33.93555;101641.2;;;;-83
2022/04/19 09:42:46;;;;;;;;;;;;;;;23.74;33.29395;101642.4;;;;-83
2022/04/19 09:46:18;;;;;;;7.8;4.7;;;;;;;;;;;;;-82
2022/04/19 09:47:56;;;;;;;;;;;;;;;23.93;32.83398;101637.7;;;;-83
2022/04/19 09:52:48;;;;;;;;;;;;;;;24.22;33.60742;101642.9;;;;-84
2022/04/19 09:57:47;;;;;;;;;;;;;;;24.42;33.18262;101634.3;;;;-84
2022/04/19 10:12:45;;;;;;;;;;;;;;;25.14;33.1084;101636.8;;;;-80
2022/04/19 10:16:20;;;;;;;9.3;5.4;;;;;;;;;;;;;-81
2022/04/19 10:17:45;;;;;;;;;;;;;;;25.38;33.39258;101643.5;;;;-82
2022/04/19 10:22:52;;;;;;;;;;;;;;;25.63;33.36426;101643.7;;;;-83
2022/04/19 10:27:45;;;;;;;;;;;;;;;25.9;32.79297;101643.7;;;;-83
2022/04/19 10:32:46;;;;;;;;;;;;;;;26.08;32.41016;101645.9;;;;-84
2022/04/19 10:37:49;;;;;;;;;;;;;;;26.21;32.38379;101638.9;;;;-83
2022/04/19 10:42:47;;;;;;;;;;;;;;;26.41;31.10742;101645.3;;;;-82
2022/04/19 10:46:29;;;;;;;10;5.9;;;;;;;;;;;;;-84
2022/04/19 10:48:01;;;;;;;;;;;;;;;26.49;30.83398;101645.5;;;;-84
2022/04/19 10:52:54;;;;;;;;;;;;;;;26.53;30.92969;101643.4;;;;-85
2022/04/19 11:02:46;;;;;;;;;;;;;;;26.89;31.47852;101639.4;;;;-84
2022/04/19 11:07:48;;;;;;;;;;;;;;;27.2;30.91699;101634.2;;;;-84
2022/04/19 11:12:57;;;;;;;;;;;;;;;27.38;30.67285;101633.4;;;;-84
2022/04/19 11:16:37;;;;;;;11;6.4;;;;;;;;;;;;;-81
2022/04/19 11:17:48;;;;;;;;;;;;;;;27.45;30.66602;101633.7;;;;-82
2022/04/19 11:23:01;;;;;;;;;;;;;;;27.56;30.21777;101627.8;;;;-83
2022/04/19 11:27:56;;;;;;;;;;;;;;;27.66;29.78125;101627.4;;;;-84
2022/04/19 11:32:46;;;;;;;;;;;;;;;27.71;30.20508;101625.8;;;;-84
2022/04/19 11:37:46;;;;;;;;;;;;;;;27.78;30.03516;101620;;;;-86
2022/04/19 11:47:50;;;;;;;;;;;;;;;27.98;29.87207;101622.1;;;;-84
2022/04/19 11:52:45;;;;;;;;;;;;;;;28.01;29.91016;101619.6;;;;-76
2022/04/19 11:57:45;;;;;;;;;;;;;;;28.15;30.17578;101615.8;;;;-74
2022/04/19 12:02:50;;;;;;;;;;;;;;;28.01;28.83496;101615.1;;;;-74
2022/04/19 12:07:52;;;;;;;;;;;;;;;25.79;24.90039;101614.3;;;;-73
2022/04/19 12:12:46;;;;;;;;;;;;;;;24.44;26.35645;101611.1;;;;-76
2022/04/19 12:16:36;;;;;;;12.8;6.3;;;;;;;;;;;;;-74
2022/04/19 12:17:50;;;;;;;;;;;;;;;23.51;26.12793;101610;;;;-76
2022/04/19 12:22:50;;;;;;;;;;;;;;;23.19;25.92383;101616.1;;;;-74
2022/04/19 12:27:54;;;;;;;;;;;;;;;23.11;26.52148;101615.8;;;;-73
2022/04/19 12:32:58;;;;;;;;;;;;;;;22.99;26.96484;101612.1;;;;-75
2022/04/19 12:37:45;;;;;;;;;;;;;;;22.88;26.58887;101603.8;;;;-74
2022/04/19 12:42:57;;;;;;;;;;;;;;;22.82;26.44629;101604.2;;;;-75
2022/04/19 12:46:41;;;;;;;14.8;5.4;;;;;;;;;;;;;-74
2022/04/19 12:47:48;;;;;;;;;;;;;;;22.52;26.58984;101608.2;;;;-76
2022/04/19 12:52:45;;;;;;;;;;;;;;;22.33;26.95996;101606.1;;;;-74
2022/04/19 12:57:45;;;;;;;;;;;;;;;22.41;26.88379;101603.7;;;;-75
2022/04/19 13:02:46;;;;;;;;;;;;;;;22.56;27.15918;101597.1;;;;-74
2022/04/19 13:12:45;;;;;;;;;;;;;;;22.52;26.95996;101594.3;;;;-74
2022/04/19 13:16:42;;;;;;;6.9;3.9;;;;;;;;;;;;;-75
2022/04/19 13:17:45;;;;;;;;;;;;;;;22.48;27.44336;101592.9;;;;-74
2022/04/19 13:22:48;;;;;;;;;;;;;;;22.29;27.56934;101597.3;;;;-74
2022/04/19 13:27:46;;;;;;;;;;;;;;;22.36;27.80469;101594.8;;;;-76
2022/04/19 13:32:45;;;;;;;;;;;;;;;22.46;27.74219;101587.5;;;;-74
2022/04/19 13:42:45;;;;;;;;;;;;;;;22.11;28.04297;101588.2;;;;-73
2022/04/19 13:46:45;;;;;;;8.8;4.4;;;;;;;;;;;;;-74
2022/04/19 13:47:45;;;;;;;;;;;;;;;22.24;28.18945;101580.6;;;;-73
2022/04/19 13:52:45;;;;;;;;;;;;;;;22.46;28.82715;101574;;;;-74
2022/04/19 13:57:45;;;;;;;;;;;;;;;22.49;28.08984;101575;;;;-73
2022/04/19 14:02:45;;;;;;;;;;;;;;;22.23;28.16602;101585.7;;;;-73
2022/04/19 14:07:45;;;;;;;;;;;;;;;21.97;28.85254;101579.8;;;;-75
2022/04/19 14:12:45;;;;;;;;;;;;;;;22.05;28.33887;101575.4;;;;-73
2022/04/19 14:16:48;;;;;;;6.1;3.5;;;;;;;;;;;;;-73
2022/04/19 14:17:45;;;;;;;;;;;;;;;21.61;28.59961;101581.8;;;;-73
2022/04/19 14:22:46;;;;;;;;;;;;;;;21.84;28.60254;101582;;;;-73
2022/04/19 14:27:45;;;;;;;;;;;;;;;21.93;28.29688;101578.7;;;;-73
2022/04/19 14:37:45;;;;;;;;;;;;;;;21.99;27.96582;101582.6;;;;-74
2022/04/19 14:42:45;;;;;;;;;;;;;;;21.91;27.26855;101577.4;;;;-74
2022/04/19 14:46:53;;;;;;;7;3.1;;;;;;;;;;;;;-74
2022/04/19 14:47:45;;;;;;;;;;;;;;;21.81;26.57129;101567.5;;;;-74
2022/04/19 14:52:45;;;;;;;;;;;;;;;21.51;26.11523;101563.8;;;;-76
2022/04/19 14:57:45;;;;;;;;;;;;;;;21.59;26.58105;101564.5;;;;-73
2022/04/19 15:02:45;;;;;;;;;;;;;;;21.59;26.47656;101561.6;;;;-75
2022/04/19 15:07:46;;;;;;;;;;;;;;;21.55;26.52051;101558.8;;;;-76
2022/04/19 15:12:45;;;;;;;;;;;;;;;21.45;26.28418;101563.6;;;;-74
2022/04/19 15:16:56;;;;;;;5.1;3;;;;;;;;;;;;;-74
2022/04/19 15:17:45;;;;;;;;;;;;;;;21.02;26.65039;101561;;;;-72
2022/04/19 15:22:48;;;;;;;;;;;;;;;20.76;26.7959;101564.5;;;;-74
2022/04/19 15:27:46;;;;;;;;;;;;;;;20.62;27.30566;101562.9;;;;-73
2022/04/19 15:32:45;;;;;;;;;;;;;;;20.8;28.33984;101564.7;;;;-74
2022/04/19 15:37:45;;;;;;;;;;;;;;;22.1;27.68457;101561.3;;;;-74
2022/04/19 15:42:45;;;;;;;;;;;;;;;22.82;27.23242;101563.4;;;;-73
2022/04/19 15:46:56;;;;;;;5.4;2.6;;;;;;;;;;;;;-75
2022/04/19 15:47:45;;;;;;;;;;;;;;;23.14;27.00879;101560.6;;;;-75
2022/04/19 15:52:45;;;;;;;;;;;;;;;23.28;27.05273;101561.8;;;;-76
2022/04/19 15:57:45;;;;;;;;;;;;;;;23.33;27.21777;101564.4;;;;-74
2022/04/19 16:02:45;;;;;;;;;;;;;;;23.3;27.63184;101565.8;;;;-75
2022/04/19 16:07:45;;;;;;;;;;;;;;;23.28;27.72363;101567.5;;;;-74
2022/04/19 16:12:50;;;;;;;;;;;;;;;23.19;28.12207;101566.6;;;;-75
2022/04/19 16:27:45;;;;;;;;;;;;;;;22.69;29.28125;101572.9;;;;-75
2022/04/19 16:32:45;;;;;;;;;;;;;;;22.49;29.56738;101568.4;;;;-74
2022/04/19 16:37:45;;;;;;;;;;;;;;;22.24;30.13965;101565.7;;;;-74
2022/04/19 16:42:45;;;;;;;;;;;;;;;22.01;30.44629;101559.7;;;;-74
2022/04/19 16:47:02;;;;;;;7.6;2.4;;;;;;;;;;;;;-73
2022/04/19 16:47:46;;;;;;;;;;;;;;;21.82;30.8252;101561.2;;;;-72
2022/04/19 16:52:45;;;;;;;;;;;;;;;21.64;31.12305;101559.6;;;;-73
2022/04/19 16:57:45;;;;;;;;;;;;;;;21.51;31.4248;101564.2;;;;-73
2022/04/19 17:02:45;;;;;;;;;;;;;;;21.32;31.68848;101563.7;;;;-74
2022/04/19 17:07:45;;;;;;;;;;;;;;;21.17;31.97559;101562.7;;;;-71
2022/04/19 17:12:45;;;;;;;;;;;;;;;20.98;32.07715;101561.1;;;;-74
2022/04/19 17:17:06;;;;;;;3.5;1.8;;;;;;;;;;;;;-74
2022/04/19 17:17:45;;;;;;;;;;;;;;;20.73;32.20898;101560.9;;;;-74
2022/04/19 17:22:47;;;;;;;;;;;;;;;20.48;32.60352;101559.9;;;;-74
2022/04/19 17:27:45;;;;;;;;;;;;;;;20.24;32.83887;101561.3;;;;-73
2022/04/19 17:32:45;;;;;;;;;;;;;;;20;33.13086;101557.2;;;;-73
2022/04/19 17:37:45;;;;;;;;;;;;;;;19.72;33.56836;101561.3;;;;-73
2022/04/19 17:42:45;;;;;;;;;;;;;;;19.52;33.73633;101566.8;;;;-83
2022/04/19 17:47:09;;;;;;;3.5;1.8;;;;;;;;;;;;;-82
2022/04/19 17:47:45;;;;;;;;;;;;;;;19.25;34.00098;101562.7;;;;-83
2022/04/19 17:57:46;;;;;;;;;;;;;;;18.71;34.77148;101570.7;;;;-83
2022/04/19 18:02:51;;;;;;;;;;;;;;;18.48;35.06152;101578.6;;;;-82
2022/04/19 18:07:45;;;;;;;;;;;;;;;18.24;35.61328;101587.5;;;;-81
2022/04/19 18:12:45;;;;;;;;;;;;;;;17.99;35.80957;101587.6;;;;-84
2022/04/19 18:17:15;;;;;;;4.3;1.9;;;;;;;;;;;;;-86
2022/04/19 18:17:45;;;;;;;;;;;;;;;17.79;36.14648;101598.3;;;;-80
2022/04/19 18:27:49;;;;;;;;;;;;;;;17.34;36.92969;101610.4;;;;-84
2022/04/19 18:32:48;;;;;;;;;;;;;;;17.11;37.74121;101616;;;;-83
2022/04/19 18:37:50;;;;;;;;;;;;;;;16.87;38.3457;101631.1;;;;-83
2022/04/19 18:59:41;;;;;;;;;;;;;;;16.03;40.83594;101671.7;;;;-86
2022/04/19 19:04:45;;;;;;;;;;;;;;;15.83;41.46191;101673.1;;;;-85
2022/04/19 19:09:42;;;;;;;;;;;;;;;15.63;42.25977;101678.8;;;;-84
2022/04/19 19:14:43;;;;;;;;;;;;;;;15.46;42.9668;101688.3;;;;-85
2022/04/19 19:17:18;;;;;;;8.6;4.7;;;;;;;;;;;;;-85
2022/04/19 19:19:45;;;;;;;;;;;;;;;15.31;43.51758;101693.2;;;;-83
2022/04/19 19:24:38;;;;;;;;;;;;;;;15.15;43.33301;101699.1;;;;-85
2022/04/19 19:29:47;;;;;;;;;;;;;;;14.99;44.28906;101709;;;;-86
2022/04/19 19:34:42;;;;;;;;;;;;;;;14.83;44.58887;101715.8;;;;-83
2022/04/19 19:39:48;;;;;;;;;;;;;;;14.69;45.21875;101712.8;;;;-85
2022/04/19 19:44:51;;;;;;;;;;;;;;;14.56;45.49805;101722.3;;;;-84
2022/04/19 19:47:21;;;;;;;9.3;5.6;;;;;;;;;;;;;-84
2022/04/19 19:49:40;;;;;;;;;;;;;;;14.42;45.33691;101731.8;;;;-84
2022/04/19 19:54:41;;;;;;;;;;;;;;;14.3;45.55078;101741.2;;;;-85
2022/04/19 19:59:56;;;;;;;;;;;;;;;14.18;46.08984;101747;;;;-85
2022/04/19 20:04:50;;;;;;;;;;;;;;;14.07;46.04395;101751.1;;;;-81
2022/04/19 20:09:42;;;;;;;;;;;;;;;13.93;46.87402;101753.6;;;;-85
2022/04/19 20:14:49;;;;;;;;;;;;;;;13.81;46.89453;101765.2;;;;-85
2022/04/19 20:17:29;;;;;;;11.1;5.8;;;;;;;;;;;;;-84
2022/04/19 20:19:42;;;;;;;;;;;;;;;13.71;47.21191;101768.8;;;;-83
2022/04/19 20:24:46;;;;;;;;;;;;;;;13.6;47.42383;101771.6;;;;-84
2022/04/19 20:29:54;;;;;;;;;;;;;;;13.51;47.48145;101776.2;;;;-84
2022/04/19 20:34:44;;;;;;;;;;;;;;;13.41;47.9541;101774.9;;;;-83
2022/04/19 20:39:41;;;;;;;;;;;;;;;13.31;47.98926;101783.8;;;;-80
2022/04/19 20:44:40;;;;;;;;;;;;;;;13.21;48.4834;101789;;;;-79
2022/04/19 20:54:41;;;;;;;;;;;;;;;13.01;49.28125;101804;;;;-81
2022/04/19 20:59:47;;;;;;;;;;;;;;;12.9;49.10059;101804.8;;;;-79
2022/04/19 21:04:42;;;;;;;;;;;;;;;12.81;49.42773;101805.2;;;;-80
2022/04/19 21:09:43;;;;;;;;;;;;;;;12.71;49.65137;101806.7;;;;-79
2022/04/19 21:14:41;;;;;;;;;;;;;;;12.62;49.69727;101807.9;;;;-80
2022/04/19 21:17:32;;;;;;;9.5;4.8;;;;;;;;;;;;;-79
2022/04/19 21:19:40;;;;;;;;;;;;;;;12.53;49.74316;101807;;;;-79
2022/04/19 21:24:40;;;;;;;;;;;;;;;12.45;50.09277;101808.3;;;;-77
2022/04/19 21:29:41;;;;;;;;;;;;;;;12.38;49.90527;101812.1;;;;-78
2022/04/19 21:34:49;;;;;;;;;;;;;;;12.31;50.08691;101808.5;;;;-81
2022/04/19 21:39:44;;;;;;;;;;;;;;;12.24;50.11426;101814.5;;;;-80
2022/04/19 21:44:40;;;;;;;;;;;;;;;12.16;50.31836;101808.2;;;;-80
2022/04/19 21:47:28;;;;;;;9.7;4.1;;;;;;;;;;;;;-81
2022/04/19 21:49:43;;;;;;;;;;;;;;;12.1;50.9043;101811.7;;;;-79
2022/04/19 21:54:53;;;;;;;;;;;;;;;12.03;50.87402;101812.7;;;;-78
2022/04/19 22:05:10;;;;;;;;;;;;;;;;;;;;;
2022/04/19 22:14:24;;;;;;;;;;;;;;;11.82;51.15234;101824.7;;;;-82
2022/04/19 22:17:26;;;;;;;10.3;3.8;;;;;;;;;;;;;-82
2022/04/19 22:19:24;;;;;;;;;;;;;;;11.77;51.4375;101828.7;;;;-82
2022/04/19 22:24:24;;;;;;;;;;;;;;;11.7;51.71973;101827.3;;;;-82
2022/04/19 22:29:24;;;;;;;;;;;;;;;11.65;51.83691;101829.4;;;;-82
2022/04/19 22:34:24;;;;;;;;;;;;;;;11.6;51.91992;101827.9;;;;-82
2022/04/19 22:39:24;;;;;;;;;;;;;;;11.54;51.90234;101826.7;;;;-81
2022/04/19 22:44:26;;;;;;;;;;;;;;;11.47;52.60938;101823.3;;;;-82
2022/04/19 22:47:28;;;;;;;8.3;4.1;;;;;;;;;;;;;-82
2022/04/19 22:49:24;;;;;;;;;;;;;;;11.43;52.3584;101822.6;;;;-82
2022/04/19 22:54:26;;;;;;;;;;;;;;;11.36;52.50586;101820;;;;-81
2022/04/19 22:59:24;;;;;;;;;;;;;;;11.29;52.71094;101824.8;;;;-82
2022/04/19 23:04:25;;;;;;;;;;;;;;;11.26;52.7627;101826;;;;-84
2022/04/19 23:09:25;;;;;;;;;;;;;;;11.22;52.72363;101823.3;;;;-82
2022/04/19 23:14:24;;;;;;;;;;;;;;;11.17;52.84277;101821.7;;;;-80
2022/04/19 23:17:28;;;;;;;7;3.6;;;;;;;;;;;;;-82
2022/04/19 23:19:24;;;;;;;;;;;;;;;11.13;53.27148;101819.9;;;;-81
2022/04/19 23:24:25;;;;;;;;;;;;;;;11.11;53.09082;101819.9;;;;-82
2022/04/19 23:29:24;;;;;;;;;;;;;;;11.06;53.30762;101818.4;;;;-83
2022/04/19 23:34:25;;;;;;;;;;;;;;;11.02;53.05762;101819.7;;;;-82
2022/04/19 23:39:24;;;;;;;;;;;;;;;10.97;54.15723;101816.8;;;;-83
2022/04/19 23:44:25;;;;;;;;;;;;;;;10.96;53.35059;101820.4;;;;-82
2022/04/19 23:47:29;;;;;;;6.7;3.5;;;;;;;;;;;;;-82
2022/04/19 23:49:24;;;;;;;;;;;;;;;10.9;53.2666;101813.8;;;;-76
2022/04/19 23:54:24;;;;;;;;;;;;;;;10.83;53.87207;101814.7;;;;-76
2022/04/19 23:59:24;;;;;;;;;;;;;;;10.79;53.87598;101813.5;;;;-76
